createdAt,value
2018-04-17T00:00:43.265Z,93.55
2018-04-17T00:01:43.260Z,93.12
2018-04-17T00:02:43.260Z,92.69
2018-04-17T00:03:43.258Z,92.60
2018-04-17T00:04:43.259Z,92.60
2018-04-17T00:05:43.258Z,92.69
2018-04-17T00:06:43.255Z,92.41
2018-04-17T00:07:43.254Z,92.41
2018-04-17T00:08:43.256Z,92.79
2018-04-17T00:09:43.252Z,93.17
2018-04-17T00:10:43.252Z,92.79
2018-04-17T00:11:43.250Z,92.79
2018-04-17T00:12:43.249Z,92.79
2018-04-17T00:13:43.249Z,92.98
2018-04-17T00:14:43.249Z,92.79
2018-04-17T00:15:43.245Z,92.50
2018-04-17T00:16:43.245Z,92.12
2018-04-17T00:17:43.246Z,92.12
2018-04-17T00:18:43.243Z,92.41
2018-04-17T00:19:43.287Z,92.79
2018-04-17T00:20:43.241Z,92.50
2018-04-17T00:21:43.241Z,91.93
2018-04-17T00:22:43.239Z,91.83
2018-04-17T00:23:43.238Z,92.50
2018-04-17T00:24:43.238Z,92.03
2018-04-17T00:25:43.236Z,92.12
2018-04-17T00:26:43.235Z,91.74
2018-04-17T00:27:43.233Z,92.22
2018-04-17T00:28:43.233Z,92.32
2018-04-17T00:29:43.235Z,92.03
2018-04-17T00:30:43.230Z,92.50
2018-04-17T00:31:43.230Z,92.79
2018-04-17T00:32:43.228Z,92.79
2018-04-17T00:33:43.230Z,92.60
2018-04-17T00:34:43.227Z,92.41
2018-04-17T00:35:43.225Z,93.27
2018-04-17T00:36:43.224Z,93.70
2018-04-17T00:37:43.225Z,93.65
2018-04-17T00:38:43.222Z,93.51
2018-04-17T00:39:43.219Z,93.46
2018-04-17T00:40:43.221Z,93.70
2018-04-17T00:41:43.220Z,93.46
2018-04-17T00:42:43.218Z,93.22
2018-04-17T00:43:43.218Z,93.41
2018-04-17T00:44:43.218Z,93.41
2018-04-17T00:45:43.215Z,93.60
2018-04-17T00:46:43.216Z,94.27
2018-04-17T00:47:43.214Z,93.98
2018-04-17T00:48:43.212Z,94.37
2018-04-17T00:49:43.212Z,94.93
2018-04-17T00:50:43.210Z,94.37
2018-04-17T00:51:43.209Z,94.56
2018-04-17T00:52:43.213Z,94.27
2018-04-17T00:53:43.208Z,94.08
2018-04-17T00:54:43.214Z,94.84
2018-04-17T00:55:43.206Z,94.74
2018-04-17T00:56:43.205Z,94.93
2018-04-17T00:57:43.205Z,94.27
2018-04-17T00:58:43.203Z,94.27
2018-04-17T00:59:43.202Z,94.17
2018-04-17T01:00:43.201Z,94.46
2018-04-17T01:01:43.201Z,94.74
2018-04-17T01:02:43.198Z,94.37
2018-04-17T01:03:43.201Z,93.79
2018-04-17T01:04:43.197Z,93.93
2018-04-17T01:05:43.197Z,94.46
2018-04-17T01:06:43.194Z,94.27
2018-04-17T01:07:43.194Z,94.65
2018-04-17T01:08:43.192Z,94.74
2018-04-17T01:09:43.195Z,95.32
2018-04-17T01:10:43.191Z,95.89
2018-04-17T01:11:43.191Z,96.36
2018-04-17T01:12:43.188Z,96.75
2018-04-17T01:13:43.188Z,96.46
2018-04-17T01:14:43.186Z,96.75
2018-04-17T01:15:43.186Z,96.94
2018-04-17T01:16:43.187Z,97.13
2018-04-17T01:17:43.184Z,97.13
2018-04-17T01:18:43.191Z,97.32
2018-04-17T01:19:43.182Z,97.13
2018-04-17T01:20:43.182Z,97.41
2018-04-17T01:21:43.180Z,96.94
2018-04-17T01:22:43.179Z,96.94
2018-04-17T01:23:43.176Z,97.03
2018-04-17T01:24:43.179Z,96.65
2018-04-17T01:25:43.175Z,96.75
2018-04-17T01:26:43.176Z,96.75
2018-04-17T01:27:43.172Z,96.84
2018-04-17T01:28:43.170Z,97.03
2018-04-17T01:29:43.170Z,97.13
2018-04-17T01:30:43.169Z,96.46
2018-04-17T01:31:43.169Z,96.36
2018-04-17T01:32:43.166Z,96.36
2018-04-17T01:33:43.166Z,96.36
2018-04-17T01:34:43.165Z,96.56
2018-04-17T01:35:43.163Z,95.89
2018-04-17T01:36:43.163Z,95.98
2018-04-17T01:37:43.161Z,96.08
2018-04-17T01:38:43.163Z,96.27
2018-04-17T01:39:43.157Z,95.51
2018-04-17T01:40:43.157Z,95.61
2018-04-17T01:41:43.158Z,95.98
2018-04-17T01:42:43.156Z,95.98
2018-04-17T01:43:43.155Z,96.27
2018-04-17T01:44:43.158Z,95.51
2018-04-17T01:45:43.152Z,95.79
2018-04-17T01:46:43.150Z,95.89
2018-04-17T01:47:43.152Z,96.27
2018-04-17T01:48:43.152Z,96.08
2018-04-17T01:49:43.148Z,96.46
2018-04-17T01:50:43.147Z,96.27
2018-04-17T01:51:43.147Z,96.75
2018-04-17T01:52:43.146Z,96.75
2018-04-17T01:53:43.145Z,96.84
2018-04-17T01:54:43.144Z,96.27
2018-04-17T01:55:43.143Z,96.27
2018-04-17T01:56:43.146Z,96.17
2018-04-17T01:57:43.147Z,96.17
2018-04-17T01:58:43.143Z,96.17
2018-04-17T01:59:43.144Z,96.56
2018-04-17T02:00:43.142Z,96.36
2018-04-17T02:01:43.138Z,96.08
2018-04-17T02:02:43.137Z,95.70
2018-04-17T02:03:43.135Z,95.98
2018-04-17T02:04:43.136Z,95.89
2018-04-17T02:05:43.135Z,95.61
2018-04-17T02:06:43.134Z,95.22
2018-04-17T02:07:43.130Z,95.51
2018-04-17T02:08:43.129Z,95.41
2018-04-17T02:09:43.129Z,95.61
2018-04-17T02:10:43.128Z,94.93
2018-04-17T02:11:43.129Z,95.32
2018-04-17T02:12:43.125Z,95.61
2018-04-17T02:13:43.125Z,94.74
2018-04-17T02:14:43.125Z,94.74
2018-04-17T02:15:43.121Z,94.84
2018-04-17T02:16:43.120Z,94.74
2018-04-17T02:17:43.120Z,94.17
2018-04-17T02:18:43.126Z,94.37
2018-04-17T02:19:43.117Z,94.56
2018-04-17T02:20:43.116Z,94.84
2018-04-17T02:21:43.115Z,94.56
2018-04-17T02:22:43.112Z,94.17
2018-04-17T02:23:43.111Z,94.08
2018-04-17T02:24:43.111Z,94.37
2018-04-17T02:25:43.109Z,94.74
2018-04-17T02:26:43.106Z,94.65
2018-04-17T02:27:43.106Z,93.70
2018-04-17T02:28:43.106Z,93.98
2018-04-17T02:29:43.109Z,93.88
2018-04-17T02:30:43.103Z,94.65
2018-04-17T02:31:43.103Z,94.37
2018-04-17T02:32:43.109Z,94.84
2018-04-17T02:33:43.103Z,94.84
2018-04-17T02:34:43.099Z,94.74
2018-04-17T02:35:43.098Z,94.74
2018-04-17T02:36:43.100Z,94.46
2018-04-17T02:37:43.096Z,94.08
2018-04-17T02:38:43.094Z,93.79
2018-04-17T02:39:43.093Z,93.88
2018-04-17T02:40:43.093Z,94.17
2018-04-17T02:41:43.092Z,94.08
2018-04-17T02:42:43.089Z,93.88
2018-04-17T02:43:43.089Z,94.08
2018-04-17T02:44:43.088Z,94.27
2018-04-17T02:45:43.087Z,94.27
2018-04-17T02:46:43.084Z,93.88
2018-04-17T02:47:43.083Z,93.98
2018-04-17T02:48:43.081Z,93.88
2018-04-17T02:49:43.083Z,94.46
2018-04-17T02:50:43.079Z,94.65
2018-04-17T02:51:43.077Z,94.74
2018-04-17T02:52:43.077Z,94.65
2018-04-17T02:53:43.076Z,94.74
2018-04-17T02:54:43.075Z,94.65
2018-04-17T02:55:43.072Z,95.03
2018-04-17T02:56:43.076Z,95.51
2018-04-17T02:57:43.073Z,95.51
2018-04-17T02:58:43.069Z,95.98
2018-04-17T02:59:43.066Z,95.98
2018-04-17T03:00:43.066Z,96.08
2018-04-17T03:01:43.072Z,96.17
2018-04-17T03:02:43.063Z,96.36
2018-04-17T03:03:43.062Z,96.65
2018-04-17T03:04:43.061Z,96.75
2018-04-17T03:05:43.063Z,97.13
2018-04-17T03:06:43.057Z,97.22
2018-04-17T03:07:43.056Z,97.32
2018-04-17T03:08:43.059Z,97.32
2018-04-17T03:09:43.053Z,97.46
2018-04-17T03:10:43.052Z,97.32
2018-04-17T03:11:43.050Z,96.94
2018-04-17T03:12:43.050Z,97.13
2018-04-17T03:13:43.047Z,96.80
2018-04-17T03:14:43.046Z,96.41
2018-04-17T03:15:43.045Z,97.27
2018-04-17T03:16:43.044Z,97.08
2018-04-17T03:17:43.043Z,97.08
2018-04-17T03:18:43.041Z,96.46
2018-04-17T03:19:43.040Z,96.80
2018-04-17T03:20:43.038Z,96.89
2018-04-17T03:21:43.039Z,97.08
2018-04-17T03:22:43.035Z,96.12
2018-04-17T03:23:43.034Z,96.22
2018-04-17T03:24:43.033Z,96.32
2018-04-17T03:25:43.033Z,96.22
2018-04-17T03:26:43.030Z,96.51
2018-04-17T03:27:43.029Z,95.94
2018-04-17T03:28:43.027Z,96.12
2018-04-17T03:29:43.026Z,96.03
2018-04-17T03:30:43.023Z,96.60
2018-04-17T03:31:43.023Z,96.51
2018-04-17T03:32:43.020Z,96.22
2018-04-17T03:33:43.024Z,96.41
2018-04-17T03:34:43.018Z,96.03
2018-04-17T03:35:43.015Z,96.12
2018-04-17T03:36:43.015Z,95.65
2018-04-17T03:37:43.020Z,95.75
2018-04-17T03:38:43.010Z,95.56
2018-04-17T03:39:43.009Z,95.46
2018-04-17T03:40:43.009Z,95.46
2018-04-17T03:41:43.009Z,95.17
2018-04-17T03:42:43.004Z,95.36
2018-04-17T03:43:43.004Z,95.46
2018-04-17T03:44:43.004Z,95.46
2018-04-17T03:45:42.999Z,95.75
2018-04-17T03:46:42.996Z,95.36
2018-04-17T03:47:42.996Z,95.75
2018-04-17T03:48:42.995Z,95.84
2018-04-17T03:49:42.997Z,95.65
2018-04-17T03:50:42.990Z,95.75
2018-04-17T03:51:42.991Z,95.46
2018-04-17T03:52:42.988Z,95.84
2018-04-17T03:53:42.988Z,95.94
2018-04-17T03:54:42.986Z,95.75
2018-04-17T03:55:42.983Z,95.56
2018-04-17T03:56:42.983Z,95.46
2018-04-17T03:57:42.981Z,95.56
2018-04-17T03:58:42.978Z,95.75
2018-04-17T03:59:42.978Z,96.51
2018-04-17T04:00:42.975Z,96.22
2018-04-17T04:01:42.973Z,96.41
2018-04-17T04:02:42.974Z,96.32
2018-04-17T04:03:42.970Z,96.80
2018-04-17T04:04:42.968Z,96.89
2018-04-17T04:05:42.966Z,96.60
2018-04-17T04:06:42.964Z,97.17
2018-04-17T04:07:42.963Z,97.17
2018-04-17T04:08:42.961Z,97.17
2018-04-17T04:09:42.961Z,97.17
2018-04-17T04:10:42.957Z,97.46
2018-04-17T04:11:42.955Z,97.41
2018-04-17T04:12:42.954Z,97.08
2018-04-17T04:13:42.956Z,97.27
2018-04-17T04:14:42.952Z,97.31
2018-04-17T04:15:42.949Z,97.89
2018-04-17T04:16:42.946Z,97.51
2018-04-17T04:17:42.945Z,97.41
2018-04-17T04:18:42.943Z,97.89
2018-04-17T04:19:42.946Z,97.79
2018-04-17T04:20:42.940Z,97.79
2018-04-17T04:21:42.938Z,97.60
2018-04-17T04:22:42.935Z,98.46
2018-04-17T04:23:42.935Z,97.99
2018-04-17T04:24:42.932Z,97.51
2018-04-17T04:25:42.930Z,98.08
2018-04-17T04:26:42.928Z,97.22
2018-04-17T04:27:42.925Z,97.51
2018-04-17T04:28:42.923Z,97.60
2018-04-17T04:29:42.922Z,97.60
2018-04-17T04:30:42.921Z,97.89
2018-04-17T04:31:42.922Z,97.51
2018-04-17T04:32:42.915Z,97.22
2018-04-17T04:33:42.917Z,97.41
2018-04-17T04:34:42.912Z,97.51
2018-04-17T04:35:42.909Z,97.70
2018-04-17T04:36:42.911Z,97.41
2018-04-17T04:37:42.908Z,97.60
2018-04-17T04:38:42.907Z,97.60
2018-04-17T04:39:42.902Z,97.70
2018-04-17T04:40:42.901Z,97.60
2018-04-17T04:41:42.899Z,97.70
2018-04-17T04:42:42.897Z,97.41
2018-04-17T04:43:42.895Z,97.22
2018-04-17T04:44:42.893Z,97.99
2018-04-17T04:45:42.890Z,98.18
2018-04-17T04:46:42.889Z,97.99
2018-04-17T04:47:42.885Z,98.84
2018-04-17T04:48:42.884Z,98.74
2018-04-17T04:49:42.883Z,98.08
2018-04-17T04:50:42.880Z,98.08
2018-04-17T04:51:42.881Z,98.08
2018-04-17T04:52:42.878Z,98.27
2018-04-17T04:53:42.876Z,97.70
2018-04-17T04:54:42.874Z,97.89
2018-04-17T04:55:42.870Z,98.08
2018-04-17T04:56:42.870Z,97.60
2018-04-17T04:57:42.930Z,97.22
2018-04-17T04:58:42.864Z,97.22
2018-04-17T04:59:42.868Z,97.31
2018-04-17T05:00:42.861Z,97.13
2018-04-17T05:01:42.865Z,97.13
2018-04-17T05:02:42.861Z,97.41
2018-04-17T05:03:42.854Z,97.13
2018-04-17T05:04:42.853Z,97.22
2018-04-17T05:05:42.851Z,97.13
2018-04-17T05:06:42.853Z,97.70
2018-04-17T05:07:42.848Z,97.70
2018-04-17T05:08:42.848Z,97.70
2018-04-17T05:09:42.843Z,97.70
2018-04-17T05:10:42.842Z,97.79
2018-04-17T05:11:42.841Z,97.22
2018-04-17T05:12:42.836Z,97.60
2018-04-17T05:13:42.838Z,97.70
2018-04-17T05:14:42.833Z,97.79
2018-04-17T05:15:42.835Z,97.79
2018-04-17T05:16:42.829Z,97.41
2018-04-17T05:17:42.828Z,97.60
2018-04-17T05:18:42.826Z,97.60
2018-04-17T05:19:42.825Z,97.41
2018-04-17T05:20:42.822Z,97.17
2018-04-17T05:21:42.822Z,96.89
2018-04-17T05:22:42.820Z,96.98
2018-04-17T05:23:42.817Z,96.60
2018-04-17T05:24:42.817Z,96.70
2018-04-17T05:25:42.815Z,96.98
2018-04-17T05:26:42.813Z,96.89
2018-04-17T05:27:42.810Z,96.89
2018-04-17T05:28:42.812Z,96.70
2018-04-17T05:29:42.808Z,96.22
2018-04-17T05:30:42.806Z,96.12
2018-04-17T05:31:42.804Z,95.84
2018-04-17T05:32:42.803Z,95.65
2018-04-17T05:33:42.802Z,95.27
2018-04-17T05:34:42.801Z,94.70
2018-04-17T05:35:42.797Z,94.51
2018-04-17T05:36:42.803Z,94.79
2018-04-17T05:37:42.800Z,94.79
2018-04-17T05:38:42.792Z,94.70
2018-04-17T05:39:42.793Z,94.22
2018-04-17T05:40:42.791Z,94.41
2018-04-17T05:41:42.789Z,94.22
2018-04-17T05:42:42.787Z,94.03
2018-04-17T05:43:42.787Z,94.17
2018-04-17T05:44:42.785Z,94.08
2018-04-17T05:45:42.783Z,93.32
2018-04-17T05:46:42.781Z,92.84
2018-04-17T05:47:42.782Z,93.03
2018-04-17T05:48:42.780Z,93.70
2018-04-17T05:49:42.778Z,93.22
2018-04-17T05:50:42.776Z,93.12
2018-04-17T05:51:42.777Z,92.93
2018-04-17T05:52:42.775Z,92.46
2018-04-17T05:53:42.804Z,92.17
2018-04-17T05:54:42.813Z,92.74
2018-04-17T05:55:42.784Z,92.55
2018-04-17T05:56:42.778Z,92.93
2018-04-17T05:57:42.927Z,92.60
2018-04-17T05:58:42.805Z,92.79
2018-04-17T05:59:42.866Z,92.88
2018-04-17T06:00:42.868Z,91.74
2018-04-17T06:01:42.767Z,91.46
2018-04-17T06:02:42.825Z,91.17
2018-04-17T06:03:42.765Z,91.07
2018-04-17T06:04:42.766Z,91.55
2018-04-17T06:05:42.763Z,91.07
2018-04-17T06:06:42.763Z,91.41
2018-04-17T06:07:42.763Z,90.64
2018-04-17T06:08:42.762Z,90.55
2018-04-17T06:09:42.761Z,90.83
2018-04-17T06:10:42.761Z,90.83
2018-04-17T06:11:43.226Z,90.83
2018-04-17T06:12:42.760Z,90.36
2018-04-17T06:13:42.810Z,89.97
2018-04-17T06:14:42.758Z,89.50
2018-04-17T06:15:42.757Z,89.69
2018-04-17T06:16:42.758Z,88.92
2018-04-17T06:17:42.758Z,88.20
2018-04-17T06:18:42.757Z,88.49
2018-04-17T06:19:42.757Z,88.20
2018-04-17T06:20:42.758Z,87.73
2018-04-17T06:21:42.756Z,88.11
2018-04-17T06:22:42.756Z,87.82
2018-04-17T06:23:42.755Z,87.44
2018-04-17T06:24:42.755Z,86.77
2018-04-17T06:25:42.759Z,86.43
2018-04-17T06:26:42.756Z,86.24
2018-04-17T06:27:42.755Z,86.34
2018-04-17T06:28:42.755Z,86.43
2018-04-17T06:29:42.757Z,85.48
2018-04-17T06:30:42.756Z,85.38
2018-04-17T06:31:42.755Z,86.15
2018-04-17T06:32:42.757Z,84.95
2018-04-17T06:33:42.759Z,85.10
2018-04-17T06:34:42.757Z,83.86
2018-04-17T06:35:42.761Z,83.38
2018-04-17T06:36:42.758Z,83.42
2018-04-17T06:37:42.759Z,83.90
2018-04-17T06:38:42.760Z,83.70
2018-04-17T06:39:42.762Z,83.42
2018-04-17T06:40:42.762Z,83.51
2018-04-17T06:41:42.789Z,83.80
2018-04-17T06:42:42.765Z,82.31
2018-04-17T06:43:42.765Z,80.88
2018-04-17T06:44:42.770Z,80.98
2018-04-17T06:45:42.774Z,80.98
2018-04-17T06:46:42.772Z,81.51
2018-04-17T06:47:43.389Z,82.18
2018-04-17T06:48:42.777Z,82.31
2018-04-17T06:49:43.093Z,80.73
2018-04-17T06:50:43.038Z,77.84
2018-04-17T06:51:42.983Z,74.76
2018-04-17T06:52:42.815Z,71.95
2018-04-17T06:53:42.856Z,69.11
2018-04-17T06:54:42.799Z,67.41
2018-04-17T06:55:43.072Z,65.91
2018-04-17T06:56:42.809Z,63.70
2018-04-17T06:57:42.815Z,63.83
2018-04-17T06:58:42.822Z,62.32
2018-04-17T06:59:42.830Z,60.81
2018-04-17T07:00:42.837Z,59.47
2018-04-17T07:01:42.853Z,58.98
2018-04-17T07:02:42.852Z,59.11
2018-04-17T07:03:42.862Z,58.15
2018-04-17T07:04:42.870Z,57.12
2018-04-17T07:05:42.879Z,55.67
2018-04-17T07:06:42.889Z,54.16
2018-04-17T07:07:42.898Z,53.70
2018-04-17T07:08:42.911Z,52.73
2018-04-17T07:09:42.922Z,52.47
2018-04-17T07:10:42.928Z,52.67
2018-04-17T07:11:43.010Z,53.73
2018-04-17T07:12:42.947Z,53.39
2018-04-17T07:13:42.957Z,53.87
2018-04-17T07:14:42.966Z,54.54
2018-04-17T07:15:42.976Z,55.29
2018-04-17T07:16:42.987Z,55.57
2018-04-17T07:17:42.999Z,54.49
2018-04-17T07:18:43.005Z,54.58
2018-04-17T07:19:43.015Z,55.74
2018-04-17T07:20:43.024Z,54.94
2018-04-17T07:21:43.033Z,56.74
2018-04-17T07:22:43.040Z,57.51
2018-04-17T07:23:43.054Z,59.05
2018-04-17T07:24:43.063Z,58.86
2018-04-17T07:25:43.067Z,60.75
2018-04-17T07:26:43.074Z,63.06
2018-04-17T07:27:43.085Z,62.19
2018-04-17T07:28:43.091Z,60.27
2018-04-17T07:29:43.104Z,57.97
2018-04-17T07:30:43.342Z,57.87
2018-04-17T07:31:43.140Z,59.79
2018-04-17T07:32:43.121Z,59.66
2018-04-17T07:33:43.129Z,59.22
2018-04-17T07:34:43.148Z,59.02
2018-04-17T07:35:43.142Z,57.20
2018-04-17T07:36:43.151Z,55.78
2018-04-17T07:37:43.167Z,55.59
2018-04-17T07:38:43.164Z,55.59
2018-04-17T07:39:43.407Z,55.94
2018-04-17T07:40:43.194Z,56.91
2018-04-17T07:41:43.186Z,57.87
2018-04-17T07:42:43.191Z,56.91
2018-04-17T07:43:43.259Z,57.00
2018-04-17T07:44:43.206Z,57.29
2018-04-17T07:45:43.220Z,57.20
2018-04-17T07:46:43.231Z,56.91
2018-04-17T07:47:43.230Z,56.36
2018-04-17T07:48:43.403Z,56.04
2018-04-17T07:49:43.267Z,56.71
2018-04-17T07:50:43.247Z,56.43
2018-04-17T07:51:43.256Z,56.33
2018-04-17T07:52:43.262Z,56.33
2018-04-17T07:53:43.317Z,56.43
2018-04-17T07:54:43.301Z,58.22
2018-04-17T07:55:43.286Z,58.13
2018-04-17T07:56:43.290Z,56.59
2018-04-17T07:57:43.304Z,56.62
2018-04-17T07:58:43.305Z,57.17
2018-04-17T07:59:43.313Z,56.04
2018-04-17T08:00:43.323Z,56.91
2018-04-17T08:01:43.331Z,56.71
2018-04-17T08:02:43.336Z,57.65
2018-04-17T08:03:43.345Z,57.87
2018-04-17T08:04:43.355Z,56.23
2018-04-17T08:05:43.362Z,55.78
2018-04-17T08:06:43.370Z,55.59
2018-04-17T08:07:43.379Z,55.52
2018-04-17T08:08:43.389Z,54.68
2018-04-17T08:09:43.398Z,54.56
2018-04-17T08:10:43.406Z,53.53
2018-04-17T08:11:43.418Z,53.27
2018-04-17T08:12:43.437Z,52.69
2018-04-17T08:13:43.438Z,52.40
2018-04-17T08:14:43.448Z,53.07
2018-04-17T08:15:43.459Z,53.19
2018-04-17T08:16:43.468Z,53.67
2018-04-17T08:17:43.479Z,55.12
2018-04-17T08:18:43.689Z,53.70
2018-04-17T08:19:43.499Z,53.41
2018-04-17T08:20:43.510Z,52.06
2018-04-17T08:21:43.520Z,51.61
2018-04-17T08:22:43.530Z,51.77
2018-04-17T08:23:43.540Z,50.88
2018-04-17T08:24:43.551Z,51.43
2018-04-17T08:25:43.561Z,53.72
2018-04-17T08:26:43.571Z,54.10
2018-04-17T08:27:43.588Z,53.81
2018-04-17T08:28:43.591Z,54.36
2018-04-17T08:29:43.601Z,53.78
2018-04-17T08:30:43.614Z,55.65
2018-04-17T08:31:43.618Z,56.51
2018-04-17T08:32:43.630Z,56.25
2018-04-17T08:33:43.638Z,56.82
2018-04-17T08:34:43.648Z,56.25
2018-04-17T08:35:43.657Z,55.00
2018-04-17T08:36:43.698Z,56.25
2018-04-17T08:37:43.675Z,56.54
2018-04-17T08:38:43.686Z,56.82
2018-04-17T08:39:43.695Z,56.05
2018-04-17T08:40:43.704Z,58.47
2018-04-17T08:41:43.713Z,58.27
2018-04-17T08:42:43.737Z,57.69
2018-04-17T08:43:43.737Z,55.89
2018-04-17T08:44:43.738Z,55.70
2018-04-17T08:45:43.748Z,55.24
2018-04-17T08:46:43.754Z,53.41
2018-04-17T08:47:43.765Z,54.09
2018-04-17T08:48:43.774Z,52.67
2018-04-17T08:49:43.783Z,53.34
2018-04-17T08:50:43.792Z,52.28
2018-04-17T08:51:43.801Z,52.11
2018-04-17T08:52:43.911Z,51.73
2018-04-17T08:53:43.820Z,51.41
2018-04-17T08:54:43.828Z,51.41
2018-04-17T08:55:43.839Z,53.13
2018-04-17T08:56:43.849Z,54.28
2018-04-17T08:57:43.859Z,54.64
2018-04-17T08:58:43.868Z,55.12
2018-04-17T08:59:43.878Z,54.18
2018-04-17T09:00:43.920Z,50.32
2018-04-17T09:01:43.898Z,50.74
2018-04-17T09:02:43.908Z,49.68
2018-04-17T09:03:43.922Z,48.25
2018-04-17T09:04:43.931Z,48.97
2018-04-17T09:05:43.941Z,49.19
2018-04-17T09:06:43.953Z,47.86
2018-04-17T09:07:44.058Z,50.07
2018-04-17T09:08:43.979Z,48.81
2018-04-17T09:09:43.992Z,47.55
2018-04-17T09:10:44.007Z,47.74
2018-04-17T09:11:44.074Z,47.79
2018-04-17T09:12:44.032Z,46.25
2018-04-17T09:13:44.045Z,43.46
2018-04-17T09:14:44.057Z,43.58
2018-04-17T09:15:44.166Z,46.26
2018-04-17T09:16:44.089Z,44.33
2018-04-17T09:17:44.105Z,45.30
2018-04-17T09:18:44.145Z,44.26
2018-04-17T09:19:44.177Z,46.08
2018-04-17T09:20:44.222Z,44.64
2018-04-17T09:21:44.164Z,42.90
2018-04-17T09:22:44.487Z,43.55
2018-04-17T09:23:44.200Z,45.20
2018-04-17T09:24:44.246Z,45.13
2018-04-17T09:25:44.225Z,43.79
2018-04-17T09:26:44.241Z,42.92
2018-04-17T09:27:44.255Z,43.79
2018-04-17T09:28:44.272Z,41.27
2018-04-17T09:29:44.288Z,41.17
2018-04-17T09:30:44.304Z,42.63
2018-04-17T09:31:44.320Z,41.93
2018-04-17T09:32:44.341Z,42.03
2018-04-17T09:33:44.351Z,41.97
2018-04-17T09:34:44.367Z,40.61
2018-04-17T09:35:44.382Z,42.34
2018-04-17T09:36:44.399Z,41.56
2018-04-17T09:37:44.415Z,42.17
2018-04-17T09:38:44.430Z,41.97
2018-04-17T09:39:44.460Z,40.73
2018-04-17T09:40:44.466Z,41.12
2018-04-17T09:41:44.484Z,40.05
2018-04-17T09:42:44.493Z,43.06
2018-04-17T09:43:44.513Z,40.56
2018-04-17T09:44:44.527Z,40.36
2018-04-17T09:45:44.550Z,40.00
2018-04-17T09:46:44.561Z,38.64
2018-04-17T09:47:44.574Z,40.29
2018-04-17T09:48:44.591Z,39.32
2018-04-17T09:49:44.608Z,38.83
2018-04-17T09:50:44.623Z,38.06
2018-04-17T09:51:44.640Z,39.03
2018-04-17T09:52:44.656Z,39.03
2018-04-17T09:53:44.673Z,39.28
2018-04-17T09:54:44.690Z,41.02
2018-04-17T09:55:44.940Z,40.85
2018-04-17T09:56:44.740Z,39.32
2018-04-17T09:57:44.742Z,38.85
2018-04-17T09:58:44.758Z,37.78
2018-04-17T09:59:44.856Z,37.59
2018-04-17T10:00:45.192Z,37.39
2018-04-17T10:01:44.897Z,40.85
2018-04-17T10:02:44.821Z,40.83
2018-04-17T10:03:44.840Z,44.09
2018-04-17T10:04:44.854Z,44.78
2018-04-17T10:05:44.896Z,40.01
2018-04-17T10:06:44.887Z,41.16
2018-04-17T10:07:44.903Z,41.66
2018-04-17T10:08:44.950Z,42.46
2018-04-17T10:09:44.934Z,42.17
2018-04-17T10:10:44.952Z,41.22
2018-04-17T10:11:45.264Z,40.64
2018-04-17T10:12:44.983Z,39.18
2018-04-17T10:13:44.998Z,41.43
2018-04-17T10:14:45.013Z,39.20
2018-04-17T10:15:45.035Z,41.63
2018-04-17T10:16:45.082Z,39.28
2018-04-17T10:17:45.064Z,40.46
2018-04-17T10:18:45.346Z,38.52
2018-04-17T10:19:45.296Z,40.97
2018-04-17T10:20:45.110Z,40.19
2018-04-17T10:21:45.131Z,37.63
2018-04-17T10:22:45.281Z,35.19
2018-04-17T10:23:45.178Z,34.97
2018-04-17T10:24:45.193Z,34.11
2018-04-17T10:25:45.190Z,36.70
2018-04-17T10:26:45.205Z,37.88
2018-04-17T10:27:45.220Z,35.09
2018-04-17T10:28:45.262Z,35.56
2018-04-17T10:29:45.298Z,38.73
2018-04-17T10:30:45.267Z,41.33
2018-04-17T10:31:45.609Z,42.66
2018-04-17T10:32:45.477Z,42.59
2018-04-17T10:33:45.584Z,41.82
2018-04-17T10:34:45.327Z,42.18
2018-04-17T10:35:45.623Z,41.79
2018-04-17T10:36:45.608Z,42.07
2018-04-17T10:37:45.377Z,43.05
2018-04-17T10:38:45.388Z,43.13
2018-04-17T10:39:45.428Z,43.32
2018-04-17T10:40:45.422Z,41.77
2018-04-17T10:41:45.536Z,42.86
2018-04-17T10:42:45.447Z,44.02
2018-04-17T10:43:45.461Z,45.59
2018-04-17T10:44:45.475Z,44.62
2018-04-17T10:45:45.493Z,44.16
2018-04-17T10:46:45.504Z,44.26
2018-04-17T10:47:45.519Z,42.34
2018-04-17T10:48:45.533Z,42.34
2018-04-17T10:49:45.599Z,39.04
2018-04-17T10:50:45.824Z,39.24
2018-04-17T10:51:45.580Z,43.33
2018-04-17T10:52:45.591Z,41.78
2018-04-17T10:53:45.735Z,38.76
2018-04-17T10:54:45.620Z,37.75
2018-04-17T10:55:46.269Z,40.34
2018-04-17T10:56:45.649Z,39.57
2018-04-17T10:57:45.666Z,40.15
2018-04-17T10:58:45.750Z,41.70
2018-04-17T10:59:45.749Z,44.13
2018-04-17T11:00:45.705Z,42.68
2018-04-17T11:01:45.720Z,40.65
2018-04-17T11:02:45.731Z,41.83
2018-04-17T11:03:45.746Z,41.35
2018-04-17T11:04:45.811Z,40.01
2018-04-17T11:05:45.775Z,40.11
2018-04-17T11:06:45.788Z,40.01
2018-04-17T11:07:45.803Z,40.11
2018-04-17T11:08:45.816Z,40.96
2018-04-17T11:09:45.831Z,38.73
2018-04-17T11:10:45.844Z,38.62
2018-04-17T11:11:45.858Z,42.00
2018-04-17T11:12:45.872Z,42.20
2018-04-17T11:13:45.888Z,44.33
2018-04-17T11:14:45.946Z,43.19
2018-04-17T11:15:45.915Z,40.65
2018-04-17T11:16:45.929Z,41.62
2018-04-17T11:17:45.944Z,41.93
2018-04-17T11:18:45.955Z,42.54
2018-04-17T11:19:45.971Z,42.34
2018-04-17T11:20:45.984Z,41.30
2018-04-17T11:21:45.999Z,38.27
2018-04-17T11:22:46.012Z,40.81
2018-04-17T11:23:46.026Z,39.94
2018-04-17T11:24:46.040Z,41.88
2018-04-17T11:25:46.054Z,40.05
2018-04-17T11:26:46.069Z,39.37
2018-04-17T11:27:46.081Z,38.40
2018-04-17T11:28:46.096Z,41.99
2018-04-17T11:29:46.109Z,40.91
2018-04-17T11:30:46.124Z,37.61
2018-04-17T11:31:46.137Z,38.43
2018-04-17T11:32:46.153Z,39.29
2018-04-17T11:33:46.166Z,40.53
2018-04-17T11:34:46.230Z,43.13
2018-04-17T11:35:46.191Z,42.50
2018-04-17T11:36:46.203Z,42.02
2018-04-17T11:37:46.218Z,44.15
2018-04-17T11:38:46.229Z,45.54
2018-04-17T11:39:46.243Z,45.54
2018-04-17T11:40:46.255Z,44.38
2018-04-17T11:41:46.268Z,42.91
2018-04-17T11:42:46.281Z,43.24
2018-04-17T11:43:46.292Z,43.13
2018-04-17T11:44:46.303Z,40.78
2018-04-17T11:45:46.315Z,40.57
2018-04-17T11:46:46.326Z,40.19
2018-04-17T11:47:46.389Z,39.53
2018-04-17T11:48:46.403Z,39.62
2018-04-17T11:49:46.362Z,38.48
2018-04-17T11:50:46.373Z,39.45
2018-04-17T11:51:46.385Z,41.60
2018-04-17T11:52:46.396Z,41.42
2018-04-17T11:53:46.409Z,38.53
2018-04-17T11:54:46.420Z,41.55
2018-04-17T11:55:46.432Z,41.16
2018-04-17T11:56:46.443Z,40.00
2018-04-17T11:57:46.462Z,38.27
2018-04-17T11:58:46.468Z,39.74
2018-04-17T11:59:46.482Z,38.07
2018-04-17T12:00:46.494Z,39.34
2018-04-17T12:01:46.506Z,40.21
2018-04-17T12:02:46.518Z,38.27
2018-04-17T12:03:46.531Z,38.46
2018-04-17T12:04:46.841Z,37.98
2018-04-17T12:05:46.843Z,37.98
2018-04-17T12:06:46.568Z,37.61
2018-04-17T12:07:46.644Z,35.38
2018-04-17T12:08:46.601Z,35.46
2018-04-17T12:09:46.609Z,34.77
2018-04-17T12:10:46.621Z,34.36
2018-04-17T12:11:46.633Z,35.33
2018-04-17T12:12:46.657Z,35.23
2018-04-17T12:13:46.662Z,36.98
2018-04-17T12:14:46.674Z,36.49
2018-04-17T12:15:46.688Z,38.21
2018-04-17T12:16:46.699Z,37.15
2018-04-17T12:17:46.712Z,37.63
2018-04-17T12:18:46.724Z,37.23
2018-04-17T12:19:46.735Z,39.94
2018-04-17T12:20:46.749Z,38.37
2018-04-17T12:21:46.761Z,37.60
2018-04-17T12:22:46.772Z,38.35
2018-04-17T12:23:46.783Z,40.28
2018-04-17T12:24:46.794Z,38.35
2018-04-17T12:25:46.809Z,38.54
2018-04-17T12:26:46.824Z,38.23
2018-04-17T12:27:46.828Z,38.02
2018-04-17T12:28:46.875Z,37.62
2018-04-17T12:29:46.851Z,38.93
2018-04-17T12:30:46.861Z,39.79
2018-04-17T12:31:46.870Z,40.37
2018-04-17T12:32:46.881Z,41.24
2018-04-17T12:33:46.895Z,40.57
2018-04-17T12:34:46.900Z,39.41
2018-04-17T12:35:46.907Z,39.61
2018-04-17T12:36:46.918Z,38.95
2018-04-17T12:37:46.927Z,38.76
2018-04-17T12:38:46.935Z,39.54
2018-04-17T12:39:46.947Z,38.02
2018-04-17T12:40:46.955Z,38.23
2018-04-17T12:41:46.964Z,38.16
2018-04-17T12:42:46.973Z,36.13
2018-04-17T12:43:46.983Z,35.92
2018-04-17T12:44:46.993Z,37.19
2018-04-17T12:45:47.002Z,40.78
2018-04-17T12:46:47.010Z,38.66
2018-04-17T12:47:47.020Z,38.64
2018-04-17T12:48:47.034Z,38.14
2018-04-17T12:49:47.042Z,39.09
2018-04-17T12:50:47.050Z,40.39
2018-04-17T12:51:47.061Z,41.84
2018-04-17T12:52:47.071Z,42.79